Terminal Aerodrome Forecast
Issued by NWS

Home | Current Version | Previous Version | Text Only | Print | Product List | Glossary On
Versions: 1 2 3 4 5 6 7 8 9 10 11
377
FTUS44 KSJT 271737
TAFBBD
TAF
KBBD 271737Z 2718/2818 17010KT P6SM BKN025
     FM271900 17010KT P6SM SCT030
     FM280000 VRB05KT P6SM SKC
     FM281000 14006KT P6SM BKN020
      AMD NOT SKED=

USA.gov is the U.S. government's official web portal to all federal, state and local government web resources and services.